sensor_id;sensor_type;location;lat;lon;timestamp;P1;P4;P2;P0;N10;N4;N25;N1;N05;TS
74330;SPS30;62749;51.982;5.916;2023-02-22T00:01:22;23.32;22.86;20.56;16.76;134.26;134.14;133.57;130.15;107.91;0.77
74330;SPS30;62749;51.982;5.916;2023-02-22T00:04:00;23.64;23.14;20.61;16.54;132.58;132.45;131.82;128.15;105.84;0.78
74330;SPS30;62749;51.982;5.916;2023-02-22T00:06:31;23.65;23.17;20.75;16.80;134.60;134.47;133.87;130.32;107.86;0.76
74330;SPS30;62749;51.982;5.916;2023-02-22T00:09:04;24.86;24.38;21.93;17.89;143.29;143.16;142.55;138.92;115.20;0.76
74330;SPS30;62749;51.982;5.916;2023-02-22T00:11:34;22.93;22.56;20.68;17.36;138.98;138.87;138.39;135.46;113.12;0.72
74330;SPS30;62749;51.982;5.916;2023-02-22T00:14:04;22.11;21.77;20.07;17.00;136.06;135.96;135.52;132.82;111.15;0.71
74330;SPS30;62749;51.982;5.916;2023-02-22T00:16:33;20.88;20.60;19.20;16.53;132.24;132.16;131.79;129.46;108.75;0.70
74330;SPS30;62749;51.982;5.916;2023-02-22T00:19:03;21.68;21.38;19.85;16.98;135.92;135.82;135.43;132.93;111.51;0.70
74330;SPS30;62749;51.982;5.916;2023-02-22T00:21:32;23.53;23.12;21.06;17.51;140.21;140.10;139.58;136.42;113.66;0.74
74330;SPS30;62749;51.982;5.916;2023-02-22T00:24:05;23.94;23.51;21.36;17.69;141.63;141.51;140.97;137.70;114.62;0.74
74330;SPS30;62749;51.982;5.916;2023-02-22T00:26:48;24.96;24.47;21.99;17.91;143.45;143.32;142.70;139.03;115.25;0.75
74330;SPS30;62749;51.982;5.916;2023-02-22T00:29:20;25.00;24.53;22.14;18.14;145.30;145.17;144.58;141.00;117.06;0.74
74330;SPS30;62749;51.982;5.916;2023-02-22T00:31:51;24.35;23.96;21.97;18.46;147.81;147.69;147.19;144.09;120.35;0.72
74330;SPS30;62749;51.982;5.916;2023-02-22T00:34:20;24.82;24.42;22.43;18.88;151.18;151.07;150.56;147.43;123.20;0.72
74330;SPS30;62749;51.982;5.916;2023-02-22T00:36:51;25.32;24.86;22.52;18.57;148.70;148.57;147.98;144.45;120.11;0.76
74330;SPS30;62749;51.982;5.916;2023-02-22T00:39:23;25.99;25.47;22.87;18.59;148.92;148.78;148.14;144.29;119.55;0.76
74330;SPS30;62749;51.982;5.916;2023-02-22T00:41:53;24.99;24.49;21.96;17.81;142.68;142.55;141.92;138.19;114.43;0.75
74330;SPS30;62749;51.982;5.916;2023-02-22T00:44:22;24.56;24.10;21.78;17.88;143.25;143.13;142.55;139.06;115.52;0.74
74330;SPS30;62749;51.982;5.916;2023-02-22T00:46:52;24.99;24.56;22.42;18.69;149.68;149.56;149.02;145.72;121.50;0.73
74330;SPS30;62749;51.982;5.916;2023-02-22T00:49:22;24.82;24.41;22.35;18.74;150.01;149.89;149.37;146.17;122.03;0.73
74330;SPS30;62749;51.982;5.916;2023-02-22T00:51:51;25.68;25.25;23.11;19.36;155.02;154.90;154.35;151.03;126.07;0.73
74330;SPS30;62749;51.982;5.916;2023-02-22T00:54:23;26.62;26.16;23.82;19.80;158.57;158.44;157.86;154.28;128.54;0.74
74330;SPS30;62749;51.982;5.916;2023-02-22T00:56:52;29.31;28.68;25.55;20.50;164.30;164.13;163.36;158.80;131.14;0.77
74330;SPS30;62749;51.982;5.916;2023-02-22T00:59:23;27.88;27.32;24.52;19.91;159.49;159.34;158.65;154.50;127.98;0.75
74330;SPS30;62749;51.982;5.916;2023-02-22T01:01:53;27.71;27.13;24.24;19.55;156.66;156.51;155.79;151.56;125.32;0.75
74330;SPS30;62749;51.982;5.916;2023-02-22T01:04:23;27.49;26.91;24.03;19.35;155.10;154.95;154.23;150.02;124.01;0.76
74330;SPS30;62749;51.982;5.916;2023-02-22T01:06:53;26.30;25.76;23.05;18.63;149.24;149.10;148.43;144.45;119.51;0.76
74330;SPS30;62749;51.982;5.916;2023-02-22T01:09:26;28.82;28.12;24.60;19.16;153.63;153.46;152.60;147.63;120.96;0.79
74330;SPS30;62749;51.982;5.916;2023-02-22T01:11:56;26.95;26.28;22.92;17.75;142.39;142.23;141.41;136.69;111.83;0.79
74330;SPS30;62749;51.982;5.916;2023-02-22T01:14:25;26.95;26.27;22.89;17.70;141.96;141.79;140.97;136.22;111.40;0.79
74330;SPS30;62749;51.982;5.916;2023-02-22T01:16:55;26.72;26.04;22.63;17.41;139.65;139.48;138.65;133.87;109.33;0.79
74330;SPS30;62749;51.982;5.916;2023-02-22T01:19:25;28.00;27.29;23.70;18.22;146.19;146.01;145.14;140.13;114.42;0.79
74330;SPS30;62749;51.982;5.916;2023-02-22T01:21:55;26.14;25.55;22.59;17.90;143.50;143.35;142.62;138.37;113.91;0.76
74330;SPS30;62749;51.982;5.916;2023-02-22T01:24:27;26.73;26.13;23.13;18.37;147.24;147.08;146.35;142.03;116.98;0.76
74330;SPS30;62749;51.982;5.916;2023-02-22T01:26:57;26.24;25.66;22.74;18.09;145.03;144.88;144.16;139.95;115.33;0.77
74330;SPS30;62749;51.982;5.916;2023-02-22T01:29:29;26.35;25.76;22.84;18.18;145.72;145.57;144.85;140.63;115.90;0.77
74330;SPS30;62749;51.982;5.916;2023-02-22T01:32:13;27.14;26.48;23.18;18.06;144.87;144.70;143.90;139.23;114.11;0.77
74330;SPS30;62749;51.982;5.916;2023-02-22T01:34:43;28.53;27.80;24.18;18.64;149.56;149.38;148.50;143.43;117.20;0.79
74330;SPS30;62749;51.982;5.916;2023-02-22T01:37:13;28.77;28.05;24.48;18.97;152.17;151.99;151.12;146.09;119.56;0.79
74330;SPS30;62749;51.982;5.916;2023-02-22T01:39:45;27.84;27.19;23.96;18.88;151.34;151.17;150.38;145.76;119.81;0.78
74330;SPS30;62749;51.982;5.916;2023-02-22T01:42:15;28.65;27.96;24.50;19.12;153.33;153.16;152.31;147.41;120.86;0.79
74330;SPS30;62749;51.982;5.916;2023-02-22T01:44:45;27.61;26.93;23.55;18.32;146.90;146.73;145.90;141.13;115.61;0.79
74330;SPS30;62749;51.982;5.916;2023-02-22T01:47:17;28.16;27.43;23.78;18.22;146.16;145.98;145.10;140.01;114.22;0.80
74330;SPS30;62749;51.982;5.916;2023-02-22T01:49:47;29.40;28.61;24.69;18.77;150.60;150.40;149.45;144.02;117.22;0.80
74330;SPS30;62749;51.982;5.916;2023-02-22T01:52:19;31.47;30.52;25.78;18.84;151.36;151.13;150.00;143.58;115.55;0.83
74330;SPS30;62749;51.982;5.916;2023-02-22T01:54:53;30.92;30.00;25.38;18.61;149.45;149.23;148.13;141.86;114.28;0.83
74330;SPS30;62749;51.982;5.916;2023-02-22T01:57:27;31.51;30.58;25.95;19.13;153.60;153.38;152.27;145.97;117.77;0.82
74330;SPS30;62749;51.982;5.916;2023-02-22T02:00:03;30.88;29.99;25.50;18.88;151.59;151.38;150.30;144.18;116.48;0.82
74330;SPS30;62749;51.982;5.916;2023-02-22T02:02:37;30.15;29.30;25.05;18.71;150.23;150.02;149.00;143.16;115.96;0.81
74330;SPS30;62749;51.982;5.916;2023-02-22T02:05:13;30.28;29.44;25.23;18.95;152.11;151.90;150.89;145.10;117.71;0.82
74330;SPS30;62749;51.982;5.916;2023-02-22T02:07:43;31.51;30.63;26.22;19.64;157.66;157.44;156.38;150.32;121.86;0.81
74330;SPS30;62749;51.982;5.916;2023-02-22T02:10:17;32.54;31.56;26.64;19.45;156.25;156.02;154.84;148.18;119.22;0.82
74330;SPS30;62749;51.982;5.916;2023-02-22T02:12:48;34.33;33.28;28.01;20.33;163.36;163.11;161.85;154.73;124.28;0.83
74330;SPS30;62749;51.982;5.916;2023-02-22T02:15:21;32.23;31.29;26.59;19.65;157.77;157.54;156.41;150.00;121.12;0.82
74330;SPS30;62749;51.982;5.916;2023-02-22T02:17:54;33.91;32.88;27.74;20.24;162.57;162.33;161.10;154.15;123.99;0.83
74330;SPS30;62749;51.982;5.916;2023-02-22T02:20:30;36.50;35.27;29.12;20.35;163.63;163.35;161.88;153.71;122.00;0.85
74330;SPS30;62749;51.982;5.916;2023-02-22T02:23:15;38.70;37.31;30.37;20.61;165.88;165.57;163.92;154.79;121.69;0.87
74330;SPS30;62749;51.982;5.916;2023-02-22T02:26:26;37.63;36.35;29.98;20.90;168.11;167.81;166.30;157.84;125.19;0.85
74330;SPS30;62749;51.982;5.916;2023-02-22T02:32:24;36.88;35.70;29.78;21.25;170.80;170.52;169.11;161.18;128.78;0.84
74330;SPS30;62749;51.982;5.916;2023-02-22T02:35:03;39.53;38.18;31.43;21.84;175.70;175.39;173.79;164.85;130.61;0.85
74330;SPS30;62749;51.982;5.916;2023-02-22T02:37:43;36.16;35.09;29.75;21.90;175.86;175.61;174.33;167.07;134.74;0.82
74330;SPS30;62749;51.982;5.916;2023-02-22T02:40:24;39.70;38.38;31.78;22.33;179.58;179.27;177.70;168.91;134.31;0.86
74330;SPS30;62749;51.982;5.916;2023-02-22T02:43:03;40.63;39.22;32.17;22.19;178.54;178.22;176.54;167.23;132.18;0.87
74330;SPS30;62749;51.982;5.916;2023-02-22T02:45:43;40.69;39.32;32.46;22.69;182.45;182.14;180.51;171.40;136.05;0.84
74330;SPS30;62749;51.982;5.916;2023-02-22T02:48:20;38.39;37.18;31.12;22.36;179.67;179.39;177.94;169.80;135.95;0.83
74330;SPS30;62749;51.982;5.916;2023-02-22T02:50:56;39.96;38.62;31.94;22.40;180.14;179.83;178.24;169.35;134.58;0.84
74330;SPS30;62749;51.982;5.916;2023-02-22T02:53:30;40.68;39.24;32.04;21.88;176.11;175.78;174.07;164.58;129.66;0.86
74330;SPS30;62749;51.982;5.916;2023-02-22T02:56:05;37.48;36.28;30.29;21.64;173.91;173.63;172.20;164.17;131.22;0.82
74330;SPS30;62749;51.982;5.916;2023-02-22T02:58:41;33.94;33.01;28.36;21.37;171.55;171.33;170.20;163.78;133.00;0.78
74330;SPS30;62749;51.982;5.916;2023-02-22T03:01:15;34.87;33.88;28.95;21.61;173.50;173.26;172.07;165.31;133.87;0.80
74330;SPS30;62749;51.982;5.916;2023-02-22T03:04:19;34.75;33.80;29.05;21.92;175.94;175.71;174.56;168.01;136.48;0.80
74330;SPS30;62749;51.982;5.916;2023-02-22T03:07:23;38.66;37.45;31.40;22.62;181.80;181.52;180.07;171.93;137.78;0.83
74330;SPS30;62749;51.982;5.916;2023-02-22T03:10:09;36.38;35.28;29.83;21.83;175.32;175.06;173.75;166.35;133.94;0.81
74330;SPS30;62749;51.982;5.916;2023-02-22T03:12:56;33.65;32.72;28.03;21.03;168.81;168.59;167.46;161.01;130.58;0.80
74330;SPS30;62749;51.982;5.916;2023-02-22T03:15:39;33.90;32.93;28.10;20.92;167.97;167.73;166.57;159.95;129.44;0.81
74330;SPS30;62749;51.982;5.916;2023-02-22T03:18:22;35.34;34.31;29.13;21.50;172.69;172.44;171.20;164.15;132.50;0.82
74330;SPS30;62749;51.982;5.916;2023-02-22T03:21:04;33.47;32.56;28.01;21.17;169.95;169.73;168.63;162.34;131.94;0.79
74330;SPS30;62749;51.982;5.916;2023-02-22T03:23:46;32.47;31.62;27.37;20.92;167.87;167.66;166.63;160.72;131.03;0.80
74330;SPS30;62749;51.982;5.916;2023-02-22T03:26:28;36.67;35.60;30.25;22.35;179.49;179.24;177.95;170.66;137.80;0.81
74330;SPS30;62749;51.982;5.916;2023-02-22T03:29:03;34.80;33.78;28.68;21.15;169.89;169.65;168.42;161.48;130.32;0.81
74330;SPS30;62749;51.982;5.916;2023-02-22T03:31:38;33.16;32.28;27.89;21.23;170.39;170.17;169.11;163.00;132.75;0.79
74330;SPS30;62749;51.982;5.916;2023-02-22T03:34:15;34.80;33.79;28.77;21.34;171.34;171.10;169.89;163.03;131.78;0.82
74330;SPS30;62749;51.982;5.916;2023-02-22T03:36:53;33.60;32.73;28.37;21.73;174.33;174.12;173.06;166.98;136.21;0.79
74330;SPS30;62749;51.982;5.916;2023-02-22T03:39:29;32.67;31.82;27.54;21.05;168.91;168.70;167.67;161.72;131.84;0.78
74330;SPS30;62749;51.982;5.916;2023-02-22T03:42:03;31.71;30.96;27.17;21.27;170.56;170.37;169.45;164.07;134.63;0.77
74330;SPS30;62749;51.982;5.916;2023-02-22T03:44:37;33.11;32.31;28.33;22.14;177.55;177.35;176.38;170.74;140.03;0.78
74330;SPS30;62749;51.982;5.916;2023-02-22T03:47:10;34.15;33.24;28.65;21.73;174.41;174.19;173.08;166.73;135.64;0.80
74330;SPS30;62749;51.982;5.916;2023-02-22T03:49:45;34.19;33.21;28.32;21.06;169.12;168.89;167.71;161.02;130.26;0.81
74330;SPS30;62749;51.982;5.916;2023-02-22T03:52:22;33.30;32.43;28.09;21.49;172.45;172.23;171.18;165.13;134.66;0.80
74330;SPS30;62749;51.982;5.916;2023-02-22T03:54:52;34.71;33.76;29.00;21.87;175.50;175.27;174.12;167.56;136.08;0.81
74330;SPS30;62749;51.982;5.916;2023-02-22T03:57:24;33.43;32.55;28.19;21.56;172.95;172.74;171.68;165.60;135.02;0.79
74330;SPS30;62749;51.982;5.916;2023-02-22T03:59:59;34.45;33.48;28.61;21.37;171.55;171.32;170.15;163.48;132.41;0.82
74330;SPS30;62749;51.982;5.916;2023-02-22T04:02:30;34.25;33.35;28.85;22.03;176.76;176.54;175.45;169.19;137.89;0.80
74330;SPS30;62749;51.982;5.916;2023-02-22T04:05:00;32.98;32.17;28.11;21.85;175.25;175.04;174.06;168.34;137.86;0.79
74330;SPS30;62749;51.982;5.916;2023-02-22T04:07:32;34.17;33.25;28.66;21.74;174.47;174.25;173.14;166.78;135.68;0.80
74330;SPS30;62749;51.982;5.916;2023-02-22T04:10:02;34.83;33.85;28.95;21.65;173.78;173.54;172.36;165.64;134.21;0.80
74330;SPS30;62749;51.982;5.916;2023-02-22T04:12:33;34.42;33.49;28.87;21.91;175.80;175.58;174.46;168.06;136.73;0.80
74330;SPS30;62749;51.982;5.916;2023-02-22T04:15:03;35.46;34.49;29.64;22.36;179.43;179.20;178.03;171.33;139.16;0.80
74330;SPS30;62749;51.982;5.916;2023-02-22T04:17:36;35.05;34.12;29.50;22.50;180.54;180.31;179.19;172.77;140.76;0.79
74330;SPS30;62749;51.982;5.916;2023-02-22T04:20:06;34.08;33.23;28.99;22.46;180.14;179.93;178.90;172.94;141.51;0.76
74330;SPS30;62749;51.982;5.916;2023-02-22T04:22:39;37.41;36.31;30.81;22.72;182.45;182.19;180.87;173.39;139.91;0.82
74330;SPS30;62749;51.982;5.916;2023-02-22T04:25:09;35.63;34.62;29.58;22.09;177.36;177.12;175.91;169.00;136.88;0.80
74330;SPS30;62749;51.982;5.916;2023-02-22T04:27:39;36.73;35.66;30.32;22.43;180.10;179.84;178.56;171.27;138.33;0.82
74330;SPS30;62749;51.982;5.916;2023-02-22T04:30:09;33.38;32.55;28.42;22.04;176.78;176.58;175.57;169.74;138.94;0.78
74330;SPS30;62749;51.982;5.916;2023-02-22T04:32:39;36.41;35.42;30.44;22.98;184.45;184.21;183.01;176.14;143.10;0.81
74330;SPS30;62749;51.982;5.916;2023-02-22T04:35:09;38.28;37.11;31.25;22.71;182.46;182.18;180.78;172.87;138.89;0.82
74330;SPS30;62749;51.982;5.916;2023-02-22T04:37:41;39.72;38.46;32.17;23.06;185.37;185.07;183.57;175.12;140.13;0.83
74330;SPS30;62749;51.982;5.916;2023-02-22T04:40:10;37.65;36.65;31.63;24.05;193.03;192.78;191.57;184.61;150.29;0.78
74330;SPS30;62749;51.982;5.916;2023-02-22T04:42:41;38.89;37.74;31.97;23.49;188.68;188.40;187.02;179.18;144.44;0.82
74330;SPS30;62749;51.982;5.916;2023-02-22T04:45:11;38.19;37.13;31.82;23.89;191.74;191.48;190.20;182.90;148.35;0.81
74330;SPS30;62749;51.982;5.916;2023-02-22T04:47:41;37.03;36.04;31.10;23.64;189.69;189.45;188.25;181.40;147.65;0.78
74330;SPS30;62749;51.982;5.916;2023-02-22T04:50:11;38.05;37.02;31.85;24.07;193.18;192.92;191.67;184.53;149.96;0.78
74330;SPS30;62749;51.982;5.916;2023-02-22T04:52:44;36.02;35.11;30.57;23.60;189.28;189.05;187.95;181.58;148.43;0.77
74330;SPS30;62749;51.982;5.916;2023-02-22T04:55:13;40.03;38.85;32.92;24.21;194.48;194.20;192.77;184.73;148.95;0.82
74330;SPS30;62749;51.982;5.916;2023-02-22T04:57:43;39.36;38.26;32.76;24.55;197.12;196.85;195.53;187.97;152.41;0.80
74330;SPS30;62749;51.982;5.916;2023-02-22T05:00:15;39.98;38.90;33.54;25.45;204.23;203.97;202.67;195.25;158.85;0.79
74330;SPS30;62749;51.982;5.916;2023-02-22T05:02:48;37.74;36.79;32.02;24.71;198.19;197.95;196.79;190.11;155.39;0.78
74330;SPS30;62749;51.982;5.916;2023-02-22T05:05:19;38.54;37.53;32.49;24.83;199.24;198.99;197.77;190.76;155.51;0.79
74330;SPS30;62749;51.982;5.916;2023-02-22T05:07:53;43.87;42.51;35.69;25.78;207.16;206.84;205.20;196.02;157.21;0.83
74330;SPS30;62749;51.982;5.916;2023-02-22T05:10:23;44.72;43.38;36.68;26.87;215.82;215.51;213.90;204.82;164.96;0.81
74330;SPS30;62749;51.982;5.916;2023-02-22T05:12:52;43.70;42.42;35.99;26.53;213.05;212.74;211.20;202.46;163.35;0.81
74330;SPS30;62749;51.982;5.916;2023-02-22T05:15:22;41.51;40.37;34.68;26.15;209.89;209.61;208.24;200.40;162.75;0.79
74330;SPS30;62749;51.982;5.916;2023-02-22T05:17:52;41.45;40.39;35.07;26.94;216.16;215.89;214.60;207.17;169.14;0.78
74330;SPS30;62749;51.982;5.916;2023-02-22T05:20:23;42.17;41.08;35.65;27.37;219.55;219.29;217.97;210.38;171.72;0.78
74330;SPS30;62749;51.982;5.916;2023-02-22T05:22:58;44.62;43.36;37.05;27.66;222.07;221.77;220.25;211.60;171.37;0.81
74330;SPS30;62749;51.982;5.916;2023-02-22T05:25:30;44.09;42.94;37.20;28.47;228.44;228.16;226.77;218.77;178.42;0.78
74330;SPS30;62749;51.982;5.916;2023-02-22T05:28:02;44.92;43.74;37.82;28.86;231.56;231.27;229.83;221.61;180.57;0.79
74330;SPS30;62749;51.982;5.916;2023-02-22T05:30:36;47.35;46.07;39.69;30.08;241.40;241.09;239.54;230.71;187.64;0.78
74330;SPS30;62749;51.982;5.916;2023-02-22T05:33:09;46.63;45.39;39.15;29.73;238.61;238.30;236.79;228.15;185.67;0.79
74330;SPS30;62749;51.982;5.916;2023-02-22T05:35:38;49.58;48.17;41.15;30.71;246.55;246.21;244.52;234.90;190.21;0.80
74330;SPS30;62749;51.982;5.916;2023-02-22T05:38:11;49.56;48.14;41.07;30.57;245.47;245.13;243.42;233.75;189.14;0.81
74330;SPS30;62749;51.982;5.916;2023-02-22T05:40:41;53.61;51.96;43.70;31.67;254.46;254.07;252.09;240.94;193.43;0.83
74330;SPS30;62749;51.982;5.916;2023-02-22T05:43:12;55.92;54.15;45.32;32.53;261.45;261.04;258.92;247.06;197.77;0.83
74330;SPS30;62749;51.982;5.916;2023-02-22T05:45:41;61.76;59.77;49.83;35.50;285.33;284.86;282.49;269.17;214.96;0.82
74330;SPS30;62749;51.982;5.916;2023-02-22T05:48:10;60.04;58.26;49.32;36.19;290.70;290.28;288.13;276.00;222.40;0.80
74330;SPS30;62749;51.982;5.916;2023-02-22T05:50:40;64.00;61.86;51.14;35.83;288.16;287.66;285.11;270.86;215.18;0.83
74330;SPS30;62749;51.982;5.916;2023-02-22T05:53:12;66.54;64.28;52.94;36.82;296.19;295.67;292.98;277.95;220.28;0.84
74330;SPS30;62749;51.982;5.916;2023-02-22T05:55:41;61.62;59.73;50.25;36.44;292.76;292.31;290.04;277.25;222.62;0.81
74330;SPS30;62749;51.982;5.916;2023-02-22T05:58:11;61.48;59.57;49.98;36.06;289.79;289.33;287.04;274.14;219.78;0.81
74330;SPS30;62749;51.982;5.916;2023-02-22T06:00:40;65.14;63.04;52.54;37.41;300.74;300.25;297.74;283.68;226.52;0.81
74330;SPS30;62749;51.982;5.916;2023-02-22T06:03:10;65.47;63.33;52.65;37.31;299.94;299.44;296.90;282.63;225.33;0.82
74330;SPS30;62749;51.982;5.916;2023-02-22T06:05:40;63.02;61.08;51.33;37.15;298.51;298.05;295.72;282.58;226.77;0.81
74330;SPS30;62749;51.982;5.916;2023-02-22T06:08:12;65.74;63.59;52.84;37.41;300.75;300.25;297.69;283.33;225.82;0.82
74330;SPS30;62749;51.982;5.916;2023-02-22T06:10:43;65.69;63.48;52.45;36.71;295.22;294.71;292.08;277.42;220.31;0.83
74330;SPS30;62749;51.982;5.916;2023-02-22T06:13:12;70.46;67.94;55.32;37.57;302.38;301.80;298.81;282.21;221.90;0.85
74330;SPS30;62749;51.982;5.916;2023-02-22T06:15:42;67.02;64.80;53.70;37.82;304.07;303.56;300.92;286.13;227.67;0.83
74330;SPS30;62749;51.982;5.916;2023-02-22T06:18:12;64.20;62.13;51.77;36.86;296.30;295.82;293.35;279.49;223.16;0.82
74330;SPS30;62749;51.982;5.916;2023-02-22T06:20:41;64.07;61.97;51.45;36.37;292.45;291.96;289.46;275.43;219.43;0.82
74330;SPS30;62749;51.982;5.916;2023-02-22T06:23:22;63.10;61.03;50.69;35.84;288.14;287.66;285.20;271.39;216.22;0.83
74330;SPS30;62749;51.982;5.916;2023-02-22T06:25:52;58.88;57.06;47.98;34.76;279.26;278.83;276.66;264.41;212.24;0.81
74330;SPS30;62749;51.982;5.916;2023-02-22T06:28:22;57.96;56.17;47.26;34.28;275.41;274.99;272.85;260.82;209.44;0.81
74330;SPS30;62749;51.982;5.916;2023-02-22T06:30:51;60.57;58.63;48.95;34.98;281.16;280.71;278.40;265.42;212.16;0.82
74330;SPS30;62749;51.982;5.916;2023-02-22T06:33:21;60.45;58.49;48.68;34.57;277.93;277.47;275.13;262.02;209.05;0.83
74330;SPS30;62749;51.982;5.916;2023-02-22T06:35:50;55.01;53.36;45.09;32.97;264.86;264.46;262.48;251.27;202.27;0.80
74330;SPS30;62749;51.982;5.916;2023-02-22T06:38:23;58.08;56.16;46.55;32.79;263.63;263.19;260.90;248.09;197.42;0.83
74330;SPS30;62749;51.982;5.916;2023-02-22T06:40:54;57.78;55.88;46.36;32.71;263.02;262.57;260.31;247.61;197.15;0.83
74330;SPS30;62749;51.982;5.916;2023-02-22T06:43:24;60.68;58.59;48.16;33.34;268.24;267.76;265.28;251.46;199.00;0.84
74330;SPS30;62749;51.982;5.916;2023-02-22T06:45:53;59.07;57.12;47.37;33.41;268.61;268.16;265.84;252.85;201.28;0.82
74330;SPS30;62749;51.982;5.916;2023-02-22T06:48:23;58.16;56.32;47.11;33.79;271.57;271.14;268.94;256.57;205.33;0.80
74330;SPS30;62749;51.982;5.916;2023-02-22T06:50:52;55.16;53.56;45.53;33.68;270.46;270.08;268.15;257.21;207.74;0.79
74330;SPS30;62749;51.982;5.916;2023-02-22T06:53:24;60.80;58.83;48.94;34.73;279.17;278.71;276.36;263.14;209.88;0.81
74330;SPS30;62749;51.982;5.916;2023-02-22T06:55:54;61.69;59.57;48.96;33.89;272.66;272.17;269.65;255.59;202.27;0.83
74330;SPS30;62749;51.982;5.916;2023-02-22T06:58:23;63.77;61.47;50.00;33.87;272.66;272.14;269.42;254.34;199.83;0.87
74330;SPS30;62749;51.982;5.916;2023-02-22T07:00:53;55.49;53.72;44.88;32.12;258.13;257.72;255.61;243.75;194.93;0.82
74330;SPS30;62749;51.982;5.916;2023-02-22T07:03:22;52.91;51.30;43.26;31.50;253.07;252.69;250.77;239.88;192.86;0.82
74330;SPS30;62749;51.982;5.916;2023-02-22T07:06:02;52.95;51.29;42.96;30.90;248.34;247.95;245.96;234.77;188.04;0.82
74330;SPS30;62749;51.982;5.916;2023-02-22T07:08:35;59.07;57.01;46.72;32.15;258.68;258.20;255.76;242.16;191.26;0.85
74330;SPS30;62749;51.982;5.916;2023-02-22T07:11:05;55.11;53.43;45.01;32.72;262.89;262.49;260.48;249.10;200.17;0.81
74330;SPS30;62749;51.982;5.916;2023-02-22T07:13:34;55.11;53.38;44.72;32.18;258.61;258.20;256.13;244.49;195.85;0.82
74330;SPS30;62749;51.982;5.916;2023-02-22T07:16:04;56.59;54.72;45.38;32.00;257.32;256.88;254.66;242.21;192.80;0.83
74330;SPS30;62749;51.982;5.916;2023-02-22T07:18:34;59.22;57.23;47.28;33.09;266.12;265.66;263.30;250.08;198.59;0.84
74330;SPS30;62749;51.982;5.916;2023-02-22T07:21:04;56.58;54.89;46.47;34.09;273.82;273.42;271.40;259.96;209.46;0.79
74330;SPS30;62749;51.982;5.916;2023-02-22T07:23:36;51.21;49.74;42.41;31.54;253.27;252.92;251.16;241.13;195.06;0.79
74330;SPS30;62749;51.982;5.916;2023-02-22T07:26:06;51.37;49.75;41.68;29.99;240.97;240.59;238.66;227.81;182.48;0.81
74330;SPS30;62749;51.982;5.916;2023-02-22T07:28:36;47.38;45.95;38.77;28.29;227.23;226.89;225.17;215.46;173.31;0.81
74330;SPS30;62749;51.982;5.916;2023-02-22T07:31:05;48.79;47.33;40.02;29.30;235.35;235.00;233.25;223.33;179.84;0.80
74330;SPS30;62749;51.982;5.916;2023-02-22T07:33:35;46.97;45.63;38.96;29.06;233.29;232.97;231.36;222.23;179.92;0.78
74330;SPS30;62749;51.982;5.916;2023-02-22T07:36:05;45.07;43.82;37.62;28.32;227.30;227.00;225.50;216.95;176.11;0.79
74330;SPS30;62749;51.982;5.916;2023-02-22T07:38:37;49.42;47.90;40.31;29.26;235.07;234.71;232.89;222.65;178.82;0.82
74330;SPS30;62749;51.982;5.916;2023-02-22T07:41:07;46.16;44.95;38.92;29.76;238.78;238.48;237.02;228.62;186.40;0.77
74330;SPS30;62749;51.982;5.916;2023-02-22T07:43:36;48.91;47.49;40.38;29.89;239.99;239.65;237.94;228.25;184.38;0.80
74330;SPS30;62749;51.982;5.916;2023-02-22T07:46:06;49.22;47.71;40.13;29.10;233.82;233.47;231.65;221.43;177.80;0.81
74330;SPS30;62749;51.982;5.916;2023-02-22T07:48:42;48.01;46.51;39.05;28.21;226.67;226.32;224.53;214.48;172.01;0.82
74330;SPS30;62749;51.982;5.916;2023-02-22T07:51:13;44.40;43.11;36.68;27.18;218.24;217.93;216.38;207.61;167.76;0.79
74330;SPS30;62749;51.982;5.916;2023-02-22T07:53:48;43.05;41.85;35.84;26.87;215.72;215.43;213.99;205.73;166.81;0.78
74330;SPS30;62749;51.982;5.916;2023-02-22T07:56:17;42.36;41.23;35.59;27.07;217.24;216.96;215.60;207.78;169.16;0.78
74330;SPS30;62749;51.982;5.916;2023-02-22T07:58:47;43.86;42.63;36.44;27.24;218.66;218.36;216.87;208.39;168.82;0.80
74330;SPS30;62749;51.982;5.916;2023-02-22T08:01:16;47.86;46.39;39.02;28.30;227.39;227.04;225.28;215.35;172.92;0.82
74330;SPS30;62749;51.982;5.916;2023-02-22T08:03:46;44.81;43.55;37.27;27.90;223.95;223.65;222.13;213.50;173.04;0.79
74330;SPS30;62749;51.982;5.916;2023-02-22T08:06:15;46.30;44.98;38.39;28.60;229.64;229.32;227.74;218.71;177.02;0.79
74330;SPS30;62749;51.982;5.916;2023-02-22T08:08:48;44.78;43.44;36.74;26.91;216.19;215.87;214.27;205.18;165.25;0.80
74330;SPS30;62749;51.982;5.916;2023-02-22T08:11:18;44.12;42.79;36.16;26.45;212.47;212.16;210.57;201.58;162.28;0.81
74330;SPS30;62749;51.982;5.916;2023-02-22T08:13:47;42.26;41.03;34.89;25.82;207.37;207.07;205.60;197.23;159.33;0.80
74330;SPS30;62749;51.982;5.916;2023-02-22T08:16:17;45.34;43.93;36.88;26.63;213.98;213.65;211.97;202.47;162.36;0.81
74330;SPS30;62749;51.982;5.916;2023-02-22T08:18:46;42.90;41.65;35.41;26.19;210.33;210.03;208.53;200.02;161.55;0.80
74330;SPS30;62749;51.982;5.916;2023-02-22T08:21:26;41.83;40.59;34.40;25.29;203.11;202.81;201.32;192.91;155.53;0.80
74330;SPS30;62749;51.982;5.916;2023-02-22T08:23:58;41.41;40.19;34.10;25.13;201.86;201.57;200.11;191.83;154.77;0.79
74330;SPS30;62749;51.982;5.916;2023-02-22T08:26:27;42.88;41.58;35.05;25.52;205.00;204.69;203.13;194.30;156.20;0.80
74330;SPS30;62749;51.982;5.916;2023-02-22T08:28:57;41.57;40.39;34.50;25.75;206.72;206.44;205.02;196.95;159.48;0.80
74330;SPS30;62749;51.982;5.916;2023-02-22T08:31:26;44.51;43.16;36.40;26.52;213.06;212.74;211.12;201.97;162.40;0.79
74330;SPS30;62749;51.982;5.916;2023-02-22T08:33:56;45.89;44.46;37.30;26.90;216.18;215.84;214.13;204.49;163.93;0.80
74330;SPS30;62749;51.982;5.916;2023-02-22T08:36:26;46.26;44.73;37.09;26.15;210.26;209.90;208.08;197.90;157.52;0.83
74330;SPS30;62749;51.982;5.916;2023-02-22T08:39:00;44.26;42.89;36.04;26.08;209.59;209.27;207.63;198.40;159.20;0.80
74330;SPS30;62749;51.982;5.916;2023-02-22T08:41:30;44.85;43.45;36.43;26.24;210.88;210.55;208.87;199.42;159.80;0.80
74330;SPS30;62749;51.982;5.916;2023-02-22T08:43:59;41.58;40.32;34.01;24.80;199.21;198.91;197.40;188.87;151.89;0.82
74330;SPS30;62749;51.982;5.916;2023-02-22T08:46:29;42.12;40.85;34.47;25.15;202.07;201.77;200.24;191.62;154.14;0.80
74330;SPS30;62749;51.982;5.916;2023-02-22T08:48:58;43.21;41.91;35.41;25.89;207.96;207.65;206.09;197.28;158.79;0.80